KEBS

Webster City Municipal Airport

Webster City, Iowa, USA
METAR KEBS 211255Z AUTO 33009KT 10SM CLR M15/M18 A3054 RMK AO2
Observed Flight Rules
Feb-21 @ 12:55 UTC (20 minutes ago) Visual Flight Rules
Wind Visibility Clouds
330° at 9 knots 10 miles
  • Clear skies
Temperatures Readings
Current -15°C / 5°F
Dewpoint -18°C / -0°F
Humidity 78%
Altimeter 30.54" Hg
Pressure 1034 hPa
Elevation 342
METAR KEBS 211255Z AUTO 33009KT 10SM CLR M15/M18 A3054 RMK AO2
Observed Flight Rules
Feb-21 @ 12:55 UTC
(20 minutes ago)
VFR
Wind Visibility
330° at 9 knots 10 miles
Clouds
  • Clear skies
Temperature Dewpoint
-15°C / 5°F -18°C / -0°F
Humidity Altimeter Pressure
78% 30.54" Hg 1034 hPa